Adjuntas, Puerto Rico
Current Conditions -  °F | °C
As of 6:50 PM on Saturday 25 Oct 2014 (Local Time) from TJBQ Reporting Station
Broken Clouds Broken Clouds  
Wind Chill: 81°   Ceiling: 2900
Heat Index: 86°   Visibility: 10mi
Dew Point: 75°   Wind: 0mph
Humidity: 84%   Direction: NA
Pressure: 29.87"   Gusts: NA
Location:  18.16°N, 66.72°W
Report Text: TJBQ 252250Z 00000KT 10SM BKN029 27/24 A2987 RMK RWY08 - ATIS A
Loading
Personal Weather Stations






























Interactive Weather Map New forecast layout! Learn more

10-Day Weather Forecast

Advertisements
Track Severe Weather on mobile